Results: 2018 Fyn ITU Duathlon World Championships | 45-49 Female AG Sprint
Fyn, Denmark • 08 Jul, 2018
Pos First Name Last Name YOB Country Start
Num
Time Run T1 Bike T2 Run
1 Sonia Knox 1973 IRL 2563 01:09:01 00:20:33 00:01:54 00:35:06 00:02:02 00:09:26
2 Ella Towers 1969 GBR 2562 01:09:24 00:20:46 00:01:36 00:35:06 00:02:07 00:09:49
3 Angela Joiner-Handy 1969 GBR 2556 01:09:38 00:20:37 00:01:57 00:35:27 00:02:13 00:09:24
4 Claire Hall 1973 GBR 2553 01:09:49 00:20:53 00:01:38 00:34:57 00:02:13 00:10:08
5 Celia Dubey 1972 USA 2570 01:10:35 00:21:59 00:01:41 00:34:08 00:02:14 00:10:33
6 Ute Nestler 1971 USA 2571 01:11:46 00:22:14 00:01:41 00:34:56 00:02:18 00:10:37
7 Kirsty Prior 1972 GBR 2561 01:11:56 00:22:44 00:01:36 00:34:56 00:02:16 00:10:24
8 Alma Delia Alvarez Mancera 1972 MEX 2565 01:12:01 00:21:16 00:01:53 00:35:04 00:02:49 00:10:59
9 Vikki Johnston 1971 GBR 2555 01:13:02 00:22:17 00:01:44 00:35:51 00:02:23 00:10:47
10 Elizabeth Sinclair 1969 AUS 2575 01:13:31 00:22:43 00:01:47 00:36:23 00:02:12 00:10:26
11 Maria Nunez 1972 GBR 2560 01:14:29 00:22:14 00:02:06 00:37:08 00:02:35 00:10:26
12 Karri Beck 1969 CAN 2579 01:15:39 00:23:05 00:02:20 00:36:34 00:02:30 00:11:10
13 Maria Del Carmen Lopez Martin 1973 MEX 2567 01:16:24 00:23:38 00:02:07 00:36:20 00:03:00 00:11:19
14 Natalie Wright 1973 CAN 2581 01:16:41 00:24:05 00:02:05 00:35:44 00:02:40 00:12:07
15 Claire Lowe 1972 GBR 2557 01:16:55 00:23:37 00:02:03 00:37:07 00:02:44 00:11:24
16 Christine Mcmullen 1973 GBR 2558 01:17:28 00:24:35 00:02:32 00:36:22 00:02:36 00:11:23
17 Emma Henderson 1969 GBR 2554 01:19:15 00:23:46 00:02:04 00:38:41 00:03:05 00:11:39
18 Claudia Amador Salas 1972 MEX 2582 01:19:44 00:24:15 00:01:52 00:39:30 00:02:23 00:11:44
19 Adeluci Moraes 1973 BRA 2578 01:20:14 00:25:15 00:02:51 00:38:35 00:03:26 00:10:07
20 Soo Owens 1972 CAN 2580 01:20:56 00:25:07 00:02:21 00:38:20 00:03:35 00:11:33
21 Natalie Watson 1969 AUS 2577 01:21:50 00:25:58 00:02:12 00:38:56 00:02:40 00:12:04
22 Dawn Morley 1970 GBR 2559 01:21:53 00:25:12 00:02:18 00:36:20 00:03:26 00:14:37
23 Kimee Armour 1970 USA 2568 01:32:26 00:30:08 00:03:08 00:40:48 00:03:42 00:14:40
24 Mary Craig 1972 USA 2569 01:41:29 00:33:47 00:02:34 00:44:43 00:03:38 00:16:47
25 Kate Baxter 1971 AUS 2574 01:41:30 00:30:41 00:03:34 00:47:45 00:04:42 00:14:48
26 Mia Van Eken 1971 USA 2573 01:52:56 00:31:32 00:02:50 00:57:37 00:04:39 00:16:18
Program notes:

Technical Delegate: Duncan Hough/GBR. Head Referee: Ulf Schuetze/CAN.
Competition Jury: Duncan Hough/GBR, Brian Hinton/AUS, Morten Fenger/DEN.
Distances: Run 5.5km (3 laps), Bike 19.9km (1 lap), Run 2.5km (1 lap)
Air temperature: 16.6C; Humidity: 52.7%